OSWEGO, NY - 274

GPS Positions

GPS Time
Latitude
Degrees
Longitude
Degrees
Gap
 
Distance
NM
Speed
Knots
Direction
Degrees
Jul 14, 04:51 43.50050° -76.53894° 30 min 0.02 0.00
180°
Jul 14, 04:21 43.50051° -76.53894° 30 min 0.02 0.00
90°
Jul 14, 03:51 43.50051° -76.53898° 30 min 0.02 0.00
324°
Jul 14, 03:21 43.50048° -76.53896° 30 min 0.02 0.01
297°
Jul 14, 02:51 43.50046° -76.53889° 30 min 0.02 0.00
331°
Jul 14, 02:21 43.50043° -76.53887° 30 min 0.02 0.00
235°
Jul 14, 01:51 43.50044° -76.53885° 30 min 0.02 0.00
235°
Jul 14, 01:21 43.50045° -76.53883° 30 min 0.02 0.00
206°
Jul 14, 00:51 43.50048° -76.53881° 30 min 0.02 0.00
180°
Jul 14, 00:21 43.50051° -76.53881° 30 min 0.02 0.00
235°
Jul 13, 23:51 43.50053° -76.53879° 30 min 0.02 0.00
Jul 13, 23:21 43.50050° -76.53879° 30 min 0.02 0.00
221°
Jul 13, 22:51 43.50051° -76.53876° 30 min 0.02 0.00
41°
Jul 13, 22:21 43.50050° -76.53879° 30 min 0.02 0.00
55°
Jul 13, 21:51 43.50048° -76.53881° 30 min 0.02 0.00
235°
Jul 13, 21:21 43.50050° -76.53879° 30 min 0.02 0.01
44°
Jul 13, 20:51 43.50045° -76.53885° 30 min 0.02 0.00
Jul 13, 20:21 43.50045° -76.53885° 30 min 0.02 0.01
180°
Jul 13, 19:51 43.50050° -76.53885° 30 min 0.02 0.00
90°
Jul 13, 19:21 43.50050° -76.53889° 30 min 0.02 0.00
180°
Jul 13, 18:51 43.50053° -76.53889° 30 min 0.02 0.01
125°
Jul 13, 18:21 43.50057° -76.53898° 30 min 0.02 0.01
90°
Jul 13, 17:51 43.50057° -76.53905° 30 min 0.02 0.00
180°
Jul 13, 17:21 43.50059° -76.53905° 30 min 0.02 0.00
154°
Jul 13, 16:51 43.50061° -76.53906° 30 min 0.02 0.00
270°
Jul 13, 16:21 43.50061° -76.53905° 30 min 0.02 0.00
180°
Jul 13, 15:51 43.50063° -76.53905° 30 min 0.02 0.00
130°
Jul 13, 15:21 43.50066° -76.53909° 30 min 0.02 0.00
36°
Jul 13, 14:51 43.50063° -76.53911° 30 min 0.02 0.00
90°
Jul 13, 14:21 43.50063° -76.53913° 30 min 0.02 0.00
295°
Jul 13, 13:51 43.50063° -76.53911° 30 min 0.02 0.00
90°
Jul 13, 13:21 43.50063° -76.53913° 30 min 0.02 0.00
324°
Jul 13, 12:51 43.50060° -76.53911° 30 min 0.02 0.00
Jul 13, 12:21 43.50060° -76.53911° 30 min 0.02 0.00
Jul 13, 11:51 43.50060° -76.53911° 30 min 0.02 0.00
216°
Jul 13, 11:21 43.50063° -76.53909° 30 min 0.02 0.00
180°
Jul 13, 10:51 43.50063° -76.53909° 30 min 0.02 0.00
216°
Jul 13, 10:21 43.50066° -76.53906° 30 min 0.02 0.00
71°
Jul 13, 09:51 43.50064° -76.53911° 30 min 0.02 0.00
Jul 13, 09:21 43.50064° -76.53911° 30 min 0.02 0.00
90°
Jul 13, 08:51 43.50064° -76.53915° 30 min 0.03 0.00
Jul 13, 08:21 43.50064° -76.53915° 30 min 0.03 0.00
270°
Jul 13, 07:51 43.50064° -76.53913° 30 min 0.02 0.00
125°
Jul 13, 07:21 43.50066° -76.53915° 30 min 0.02 0.00
44°
Jul 13, 06:51 43.50064° -76.53917° 30 min 0.03 0.00
180°
Jul 13, 06:21 43.50068° -76.53917° 30 min 0.03 0.00
180°
Jul 13, 05:51 43.50069° -76.53917° 30 min 0.03 0.01
270°
Jul 13, 05:21 43.50069° -76.53909° 30 min 0.02 0.01
224°
Jul 13, 04:51 43.50073° -76.53902° 30 min 0.02 0.01
264°
Jul 13, 04:21 43.50074° -76.53892° 30 min 0.01 0.02
47°
Jul 13, 03:51 43.50063° -76.53909° 30 min 0.02 0.00
Jul 13, 03:21 43.50060° -76.53909° 30 min 0.02 0.00
36°
Jul 13, 02:51 43.50058° -76.53911° 30 min 0.02 0.01
27°
Jul 13, 02:21 43.50051° -76.53915° 30 min 0.03 0.01
27°
Jul 13, 01:51 43.50046° -76.53919° 30 min 0.03 0.00
305°
Jul 13, 01:21 43.50045° -76.53917° 30 min 0.03 0.00
Jul 13, 00:51 43.50042° -76.53917° 30 min 0.03 0.01
333°
Jul 13, 00:21 43.50037° -76.53913° 30 min 0.03 0.01
338°
Jul 12, 23:51 43.50032° -76.53911° 30 min 0.03 0.00
289°
Jul 12, 23:21 43.50031° -76.53906° 30 min 0.03 0.00
310°
Jul 12, 22:51 43.50029° -76.53902° 30 min 0.03 0.00
295°
Jul 12, 22:21 43.50028° -76.53900° 30 min 0.03 0.00
257°
Jul 12, 21:51 43.50029° -76.53896° 30 min 0.03 0.00
305°
Jul 12, 21:21 43.50028° -76.53894° 30 min 0.03 0.00
305°
Jul 12, 20:51 43.50027° -76.53892° 30 min 0.03 0.00
Jul 12, 20:21 43.50026° -76.53892° 30 min 0.03 0.00
270°
Jul 12, 19:51 43.50026° -76.53889° 30 min 0.03 0.00
Jul 12, 19:21 43.50026° -76.53889° 30 min 0.03 0.00
Jul 12, 18:51 43.50026° -76.53889° 30 min 0.03 0.00
235°
Jul 12, 18:21 43.50027° -76.53887° 30 min 0.03 0.00
305°
Jul 12, 17:51 43.50026° -76.53885° 30 min 0.03 0.00
316°
Jul 12, 17:21 43.50025° -76.53883° 30 min 0.03 0.00
136°
Jul 12, 16:51 43.50026° -76.53885° 30 min 0.03 0.01
158°
Jul 12, 16:21 43.50030° -76.53887° 30 min 0.03 0.00
144°
Jul 12, 15:51 43.50032° -76.53889° 30 min 0.03 0.01
130°
Jul 12, 15:21 43.50039° -76.53900° 30 min 0.03 0.00
Jul 12, 14:51 43.50038° -76.53900° 30 min 0.03 0.00
109°
Jul 12, 14:21 43.50039° -76.53905° 30 min 0.03 0.00
138°
Jul 12, 13:51 43.50042° -76.53909° 30 min 0.03 0.01
142°
Jul 12, 13:21 43.50046° -76.53913° 30 min 0.03 0.00
130°
Jul 12, 12:51 43.50048° -76.53917° 30 min 0.03 0.00
180°
Jul 12, 12:21 43.50050° -76.53917° 30 min 0.03 0.00
210°
Jul 12, 11:51 43.50051° -76.53915° 30 min 0.03 0.00
136°
Jul 12, 11:21 43.50053° -76.53917° 30 min 0.03 0.00
55°
Jul 12, 10:51 43.50051° -76.53919° 30 min 0.03 0.00
295°
Jul 12, 10:21 43.50051° -76.53917° 30 min 0.03 0.00
334°
Jul 12, 09:51 43.50048° -76.53915° 30 min 0.03 0.00
90°
Jul 12, 09:21 43.50048° -76.53917° 30 min 0.03 0.00
206°
Jul 12, 08:51 43.50051° -76.53915° 30 min 0.03 0.00
90°
Jul 12, 08:21 43.50051° -76.53917° 30 min 0.03 0.00
180°
Jul 12, 07:51 43.50051° -76.53917° 30 min 0.03 0.00
Jul 12, 07:21 43.50050° -76.53917° 30 min 0.03 0.01
350°
Jul 12, 06:51 43.50043° -76.53915° 30 min 0.03 0.00
324°
Jul 12, 06:21 43.50041° -76.53913° 30 min 0.03 0.00
125°
Jul 12, 05:51 43.50042° -76.53915° 30 min 0.03 0.00
305°
Jul 12, 05:21 43.50041° -76.53913° 30 min 0.03 0.00
55°
Jul 12, 04:51 43.50039° -76.53917° 30 min 0.03 0.00
180°
Jul 12, 04:21 43.50040° -76.53917° 30 min 0.03 0.00
180°
Jul 12, 03:51 43.50041° -76.53917° 30 min 0.03 0.00
316°
Jul 12, 03:21 43.50040° -76.53915° 30 min 0.03 0.00
Jul 12, 02:51 43.50038° -76.53915° 30 min 0.03 0.00
305°
Jul 12, 02:21 43.50035° -76.53911° 30 min 0.03 0.00
125°
Jul 12, 01:51 43.50037° -76.53913° 30 min 0.03 0.00
Jul 12, 01:21 43.50037° -76.53913° 30 min 0.03 0.00
180°
Jul 12, 00:51 43.50038° -76.53913° 30 min 0.03 0.00
55°
Jul 12, 00:21 43.50037° -76.53915° 30 min 0.03 0.01
313°
Jul 11, 23:51 43.50034° -76.53911° 30 min 0.03 0.00
245°
Jul 11, 23:21 43.50034° -76.53909° 30 min 0.03 0.01
160°
Jul 11, 22:51 43.50039° -76.53911° 30 min 0.03 0.00
90°
Jul 11, 22:21 43.50039° -76.53913° 30 min 0.03 0.00
115°
Jul 11, 21:51 43.50040° -76.53915° 30 min 0.03 0.00
319°
Jul 11, 21:21 43.50038° -76.53913° 30 min 0.03 0.00
Jul 11, 20:51 43.50035° -76.53913° 30 min 0.03 0.00
154°
Jul 11, 20:21 43.50039° -76.53915° 30 min 0.03 0.00
90°
Jul 11, 19:51 43.50039° -76.53917° 30 min 0.03 0.00
90°
Jul 11, 19:21 43.50039° -76.53919° 30 min 0.03 0.00
Jul 11, 18:51 43.50038° -76.53919° 30 min 0.03 0.00
334°
Jul 11, 18:21 43.50034° -76.53917° 30 min 0.03 0.00
Jul 11, 17:51 43.50034° -76.53917° 30 min 0.04 0.00
270°
Jul 11, 17:21 43.50034° -76.53915° 30 min 0.03 0.01
170°
Jul 11, 16:51 43.50040° -76.53917° 30 min 0.03 0.01
147°
Jul 11, 16:21 43.50047° -76.53924° 30 min 0.03 0.00
154°
Jul 11, 15:51 43.50051° -76.53926° 30 min 0.03 0.01
346°
Jul 11, 15:21 43.50044° -76.53924° 30 min 0.03 0.00
305°
Jul 11, 14:51 43.50043° -76.53922° 30 min 0.03 0.00
334°
Jul 11, 14:21 43.50040° -76.53919° 30 min 0.03 0.00
Jul 11, 13:51 43.50039° -76.53919° 30 min 0.03 0.00
305°
Jul 11, 13:21 43.50038° -76.53917° 30 min 0.03 0.00
334°
Jul 11, 12:51 43.50035° -76.53915° 30 min 0.03 0.00
Jul 11, 12:21 43.50034° -76.53915° 30 min 0.03 0.00
105°
Jul 11, 11:51 43.50034° -76.53919° 30 min 0.04 0.00
Jul 11, 11:21 43.50034° -76.53919° 30 min 0.04 0.00
144°
Jul 11, 10:51 43.50037° -76.53922° 30 min 0.04 0.00
151°
Jul 11, 10:21 43.50040° -76.53924° 30 min 0.04 0.00
235°
Jul 11, 09:51 43.50041° -76.53922° 30 min 0.03 0.00
180°
Jul 11, 09:21 43.50042° -76.53922° 30 min 0.03 0.00
180°
Jul 11, 08:51 43.50043° -76.53922° 30 min 0.03 0.00
270°
Jul 11, 08:21 43.50043° -76.53919° 30 min 0.03 0.00
109°
Jul 11, 07:51 43.50044° -76.53924° 30 min 0.03 0.00
139°
Jul 11, 07:21 43.50046° -76.53926° 30 min 0.03 0.00
144°
Jul 11, 06:51 43.50048° -76.53928° 30 min 0.03 0.00
130°
Jul 11, 06:21 43.50051° -76.53932° 30 min 0.03 0.00
Jul 11, 05:51 43.50047° -76.53932° 30 min 0.04 0.00
305°